Flight Track Log - Related Links

Times and Time Zones

All times are in EDT time to prevent confusion due to time zone crossing. See the N163CA flight status page for this flight to view local times or setup timezone preferences in your user account.

Time Position Orientation Groundspeed Altitude Reporting Facility
EDT Latitude Longitude Course Direction KTS MPH feet Rate Location/Type
Sun 06:06:31 PM 28.7833 -81.2333 41° Northeast 90 104 700  Level Orlando TRACON
Sun 06:07:14 PM 28.8000 -81.2167 41° Northeast 77 89 1,300 824 Climbing Orlando TRACON
Sun 06:08:13 PM 28.8167 -81.2333 319° Northwest 105 121 2,100 756 Climbing Orlando TRACON
Sun 06:09:13 PM 28.8333 -81.2500 319° Northwest 99 114 2,800 695 Climbing Orlando TRACON
Sun 06:10:57 PM 28.8600 -81.3019 300° West 103 119 4,000 655 Climbing Jacksonville Center
Sun 06:11:58 PM 28.8811 -81.3275 313° West 109 125 4,600 472 Climbing Jacksonville Center
Sun 06:13:04 PM 28.9025 -81.3558 311° West 111 128 5,000 198 Climbing Jacksonville Center
Sun 06:13:59 PM 28.9256 -81.3792 318° Northwest 121 139 5,000 -52 Level Jacksonville Center
Sun 06:15:00 PM 28.9614 -81.3928 342° North 141 162 4,900 -47 Descending Jacksonville Center
Sun 06:16:06 PM 29.0053 -81.3944 358° North 141 162 4,900 50 Level Jacksonville Center
Sun 06:17:01 PM 29.0386 -81.3986 354° North 140 161 5,000  Climbing Jacksonville Center
Sun 06:18:07 PM 29.0825 -81.4006 358° North 137 158 4,900 -47 Descending Jacksonville Center
Sun 06:19:08 PM 29.1222 -81.3975 North 142 163 4,900 52 Level Jacksonville Center
Sun 06:20:03 PM 29.1597 -81.3969 North 143 165 5,000 55 Climbing Jacksonville Center
Sun 06:20:57 PM 29.1972 -81.3986 358° North 144 166 5,000 -50 Level Jacksonville Center
Sun 06:22:04 PM 29.2411 -81.3908 North 147 169 4,900 -47 Descending Jacksonville Center
Sun 06:23:04 PM 29.2806 -81.3856 North 145 167 4,900  Level Jacksonville Center
Sun 06:24:05 PM 29.3203 -81.3850 North 147 169 4,900  Level Jacksonville Center
Sun 06:25:12 PM 29.3661 -81.3794 North 147 169 4,900 47 Level Jacksonville Center
Sun 06:26:12 PM 29.4078 -81.3811 358° North 148 170 5,000 47 Climbing Jacksonville Center
Sun 06:27:19 PM 29.4517 -81.3853 355° North 150 173 5,000 -47 Level Jacksonville Center
Sun 06:28:20 PM 29.4933 -81.3775 North 149 171 4,900  Descending Jacksonville Center
Sun 06:29:14 PM 29.5289 -81.3697 11° North 147 169 5,000  Climbing Jacksonville Center
Sun 06:30:15 PM 29.5706 -81.3786 349° North 150 173 4,900  Descending Jacksonville Center
Sun 06:30:29 PM 29.5811 -81.3808 350° North 150 173 5,000 -360 Climbing Jacksonville Center
Sun 06:31:55 PM 29.6397 -81.3825 359° North 146 168 4,300 -557 Descending Jacksonville Center
Sun 06:32:49 PM 29.6750 -81.3794 North 140 161 3,700 -716 Descending Jacksonville Center
Sun 06:33:44 PM 29.7083 -81.3767 North 136 157 3,000 -414 Descending Jacksonville Center
Sun 06:34:45 PM 29.7481 -81.3831 352° North 138 159 2,900 -148 Descending Jacksonville Center
Sun 06:35:46 PM 29.7875 -81.3658 21° North 145 167 2,700 -47 Descending Jacksonville Center
Sun 06:36:53 PM 29.8294 -81.3603 North 142 163 2,800 -188 Climbing Jacksonville Center
Sun 06:37:54 PM 29.8689 -81.3500 13° North 139 160 2,300 -787 Descending Jacksonville Center
Sun 06:38:55 PM 29.9019 -81.3303 27° Northeast 133 153 1,200 -223 Descending Jacksonville Center
Sun 06:43:17 PM 29.9819 -81.3794 332° Northwest 89 102 1,100 21 Descending Jacksonville Center
Sun 06:43:41 PM 29.9883 -81.3914 302° West 101 116 1,300 500 Climbing Jacksonville Center

Login

Don't have an account? Register now (free) for customized features, flight alerts, and more!